Ag Nektarios Aiginas — SX7083 — position and weather

sailwx.info

Track history (hours):
 
Tides and Currents Weather Stations Pressure Air Temp Water Temp Dewpoint Dewpoint Depression Visibility Wind Speed Wind Dir Waves Ship Positions

Ag Nektarios Aiginas

Last reported at 2015-Apr-28 15:33 UTC. Time now 2015-Apr-28 15:57 UTC.
Position N 37°47' E 023°26'.

Length 75 m; draft 2.7 m.

Type: Passenger vessel. MMSI: 237021400.

Date/timePositionNaut miles runAvg speedWind from/ knotsBaromVisibWave heightAir tempDewpointWater temp
2015-Apr-28 15:33N 37°47' E 023°26'1 1.2
2015-Apr-28 14:33N 37°46' E 023°25'1313.0
2015-Apr-28 13:33N 37°55' E 023°36'2 1.5
2015-Apr-28 12:32N 37°56' E 023°37'1313.2
2015-Apr-28 11:34N 37°47' E 023°26'2 1.8
2015-Apr-28 10:33N 37°46' E 023°25'1312.7
2015-Apr-28 09:33N 37°55' E 023°36'3 3.0
2015-Apr-28 08:33N 37°57' E 023°38'1211.5
2015-Apr-28 07:33N 37°48' E 023°28'3 2.6
2015-Apr-28 06:33N 37°47' E 023°26'1312.9
2015-Apr-28 05:34N 37°56' E 023°37'1 1.4
2015-Apr-28 04:32N 37°57' E 023°38'1 0.1
2015-Apr-27 16:33N 37°56' E 023°38'1313.3
2015-Apr-27 15:33N 37°47' E 023°26'2 1.5
2015-Apr-27 14:33N 37°45' E 023°25'1312.7
2015-Apr-27 13:33N 37°55' E 023°35'3 2.6
2015-Apr-27 12:33N 37°57' E 023°38'1313.1
2015-Apr-27 11:33N 37°47' E 023°26'2 2.3
2015-Apr-27 10:33N 37°45' E 023°25'1312.8
2015-Apr-27 09:33N 37°55' E 023°35'3 3.0
2015-Apr-27 08:33N 37°57' E 023°38'1010.5
2015-Apr-27 07:33N 37°49' E 023°30'4 3.5
2015-Apr-27 06:30N 37°47' E 023°26'1213.0
2015-Apr-27 05:33N 37°56' E 023°37'2 1.7
2015-Apr-27 04:33N 37°57' E 023°38'2 0.1
2015-Apr-26 16:33N 37°56' E 023°37'1312.7
2015-Apr-26 15:33N 37°47' E 023°26'2 1.7
2015-Apr-26 14:33N 37°45' E 023°25'1312.6
2015-Apr-26 13:33N 37°54' E 023°36'3 2.7
2015-Apr-26 12:33N 37°56' E 023°38'1312.9
2015-Apr-26 11:33N 37°47' E 023°27'2 2.4
2015-Apr-26 10:33N 37°45' E 023°25'1312.7
2015-Apr-26 09:33N 37°54' E 023°36'3 3.1
2015-Apr-26 08:33N 37°57' E 023°38'1010.4
2015-Apr-26 07:33N 37°49' E 023°30'4 4.2
2015-Apr-26 06:31N 37°46' E 023°25'1313.0
2015-Apr-26 05:33N 37°55' E 023°36'2 2.2
2015-Apr-26 04:33N 37°57' E 023°38'1 0.1
2015-Apr-25 16:33N 37°56' E 023°37'1313.2
2015-Apr-25 15:33N 37°47' E 023°26'2 1.7
2015-Apr-25 14:33N 37°45' E 023°25'1313.0
2015-Apr-25 13:33N 37°55' E 023°36'3 2.7
2015-Apr-25 12:33N 37°57' E 023°39'0 0.0
2015-Apr-25 11:33N 37°57' E 023°39'0 0.0
2015-Apr-25 10:33N 37°57' E 023°39'0 0.0
2015-Apr-25 09:33N 37°57' E 023°39'0 0.0
2015-Apr-25 08:33N 37°57' E 023°39'1110.9
2015-Apr-25 07:33N 37°48' E 023°30'4 4.0
2015-Apr-25 06:33N 37°46' E 023°25'1312.7
2015-Apr-25 05:33N 37°55' E 023°36'2 2.0
2015-Apr-25 04:33N 37°57' E 023°39'0 0.0
2015-Apr-24 16:33N 37°57' E 023°38'1313.0
2015-Apr-24 15:33N 37°47' E 023°27'3 2.5
2015-Apr-24 14:33N 37°45' E 023°25'1312.7
2015-Apr-24 13:33N 37°55' E 023°36'2 2.4
2015-Apr-24 12:33N 37°56' E 023°38'1313.0
2015-Apr-24 11:33N 37°47' E 023°26'3 2.6
2015-Apr-24 10:33N 37°45' E 023°25'1312.7
2015-Apr-24 09:33N 37°54' E 023°35'3 3.4
2015-Apr-24 08:33N 37°57' E 023°39'1010.0
2015-Apr-24 07:33N 37°49' E 023°30'5 5.2
2015-Apr-24 06:33N 37°46' E 023°25'1313.1
2015-Apr-24 05:33N 37°55' E 023°36'2 2.1
2015-Apr-24 04:33N 37°57' E 023°38'1 0.1
2015-Apr-23 16:34N 37°56' E 023°37'1212.2
2015-Apr-23 15:34N 37°47' E 023°27'2 2.3
2015-Apr-23 14:34N 37°46' E 023°25'1312.7
2015-Apr-23 13:33N 37°55' E 023°36'3 2.5
2015-Apr-23 12:34N 37°57' E 023°38'1313.1
2015-Apr-23 11:33N 37°47' E 023°27'1 1.1
2015-Apr-23 10:26N 37°46' E 023°25'1213.0
2015-Apr-23 09:33N 37°55' E 023°36'3 3.1
2015-Apr-23 08:33N 37°57' E 023°38'1010.5
2015-Apr-23 07:33N 37°49' E 023°30'5 4.6
2015-Apr-23 06:33N 37°46' E 023°25'1313.1
2015-Apr-23 05:33N 37°56' E 023°37'2 1.9
2015-Apr-23 04:33N 37°57' E 023°38'1 0.1
2015-Apr-22 16:33N 37°56' E 023°38'1313.2
2015-Apr-22 15:33N 37°47' E 023°26'2 1.9
2015-Apr-22 14:33N 37°45' E 023°25'1312.9
2015-Apr-22 13:33N 37°55' E 023°36'2 2.0
2015-Apr-22 12:33N 37°56' E 023°37'1313.1
2015-Apr-22 11:33N 37°47' E 023°26'2 1.8
2015-Apr-22 10:33N 37°45' E 023°25'1312.9
2015-Apr-22 09:33N 37°55' E 023°36'2 1.7
2015-Apr-22 08:33N 37°56' E 023°37'1313.1
2015-Apr-22 07:33N 37°47' E 023°26'4 3.8
2015-Apr-22 06:33N 37°49' E 023°30'1110.5
2015-Apr-22 05:33N 37°57' E 023°38'0 0.0
2015-Apr-22 04:33N 37°57' E 023°38'1 0.1
2015-Apr-21 16:33N 37°56' E 023°37'1312.8
2015-Apr-21 15:34N 37°47' E 023°26'2 2.2
2015-Apr-21 14:33N 37°45' E 023°25'1312.7
2015-Apr-21 13:33N 37°54' E 023°35'2 2.1
2015-Apr-21 12:33N 37°56' E 023°37'1312.9
2015-Apr-21 11:33N 37°47' E 023°26'2 2.2
2015-Apr-21 10:33N 37°45' E 023°25'1312.6
2015-Apr-21 09:33N 37°54' E 023°35'3 2.8
2015-Apr-21 08:32N 37°56' E 023°38'1212.1
2015-Apr-21 07:33N 37°48' E 023°28'3 2.6
2015-Apr-21 06:32N 37°46' E 023°25'1312.9
2015-Apr-21 05:33N 37°55' E 023°36'2 2.3
2015-Apr-21 04:33N 37°57' E 023°38'1 0.1
2015-Apr-20 16:33N 37°56' E 023°38'1313.0
2015-Apr-20 15:34N 37°47' E 023°26'2 2.2
2015-Apr-20 14:34N 37°45' E 023°25'1312.8
2015-Apr-20 13:34N 37°55' E 023°36'2 2.5
2015-Apr-20 12:34N 37°56' E 023°38'1313.0
2015-Apr-20 11:33N 37°47' E 023°26'2 1.7
2015-Apr-20 10:33N 37°46' E 023°25'1313.1
2015-Apr-20 09:33N 37°55' E 023°36'2 1.9
2015-Apr-20 08:33N 37°56' E 023°38'1312.6
2015-Apr-20 07:33N 37°47' E 023°27'2 2.2
2015-Apr-20 06:33N 37°46' E 023°25'1313.2
2015-Apr-20 05:33N 37°55' E 023°36'2 2.1
2015-Apr-20 04:33N 37°57' E 023°38'2 0.2
2015-Apr-19 16:33N 37°55' E 023°37'1212.4
2015-Apr-19 15:33N 37°46' E 023°25'3 1.9
2015-Apr-19 14:14N 37°48' E 023°28'913.0
2015-Apr-19 13:33N 37°55' E 023°35'1 1.5
2015-Apr-19 12:32N 37°56' E 023°37'1212.6
2015-Apr-19 11:33N 37°47' E 023°26'2 1.7
2015-Apr-19 10:17N 37°47' E 023°28'912.8
2015-Apr-19 09:33N 37°55' E 023°36'2 2.1
2015-Apr-19 08:27N 37°56' E 023°38'1112.2
2015-Apr-19 07:33N 37°48' E 023°29'1 0.5
2015-Apr-19 06:23N 37°48' E 023°29'1112.7
2015-Apr-19 05:31N 37°56' E 023°38'1 0.1
2015-Apr-18 16:33N 37°56' E 023°37'1312.5
2015-Apr-18 15:33N 37°47' E 023°26'  
Track history (hours):
 
Tides and Currents Weather Stations Pressure Air Temp Water Temp Dewpoint Dewpoint Depression Visibility Wind Speed Wind Dir Waves Ship Positions

Ag Nektarios Aiginas

Last reported at 2015-Apr-28 15:33 UTC. Time now 2015-Apr-28 15:57 UTC.
Position N 37°47' E 023°26'.

Length 75 m; draft 2.7 m.

Type: Passenger vessel. MMSI: 237021400.

Date/timePositionNaut miles runAvg speedWind from/ knotsBaromVisibWave heightAir tempDewpointWater temp
2015-Apr-28 15:33N 37°47' E 023°26'1 1.2
2015-Apr-28 14:33N 37°46' E 023°25'1313.0
2015-Apr-28 13:33N 37°55' E 023°36'2 1.5
2015-Apr-28 12:32N 37°56' E 023°37'1313.2
2015-Apr-28 11:34N 37°47' E 023°26'2 1.8
2015-Apr-28 10:33N 37°46' E 023°25'1312.7
2015-Apr-28 09:33N 37°55' E 023°36'3 3.0
2015-Apr-28 08:33N 37°57' E 023°38'1211.5
2015-Apr-28 07:33N 37°48' E 023°28'3 2.6
2015-Apr-28 06:33N 37°47' E 023°26'1312.9
2015-Apr-28 05:34N 37°56' E 023°37'1 1.4
2015-Apr-28 04:32N 37°57' E 023°38'1 0.1
2015-Apr-27 16:33N 37°56' E 023°38'1313.3
2015-Apr-27 15:33N 37°47' E 023°26'2 1.5
2015-Apr-27 14:33N 37°45' E 023°25'1312.7
2015-Apr-27 13:33N 37°55' E 023°35'3 2.6
2015-Apr-27 12:33N 37°57' E 023°38'1313.1
2015-Apr-27 11:33N 37°47' E 023°26'2 2.3
2015-Apr-27 10:33N 37°45' E 023°25'1312.8
2015-Apr-27 09:33N 37°55' E 023°35'3 3.0
2015-Apr-27 08:33N 37°57' E 023°38'1010.5
2015-Apr-27 07:33N 37°49' E 023°30'4 3.5
2015-Apr-27 06:30N 37°47' E 023°26'1213.0
2015-Apr-27 05:33N 37°56' E 023°37'2 1.7
2015-Apr-27 04:33N 37°57' E 023°38'2 0.1
2015-Apr-26 16:33N 37°56' E 023°37'1312.7
2015-Apr-26 15:33N 37°47' E 023°26'2 1.7
2015-Apr-26 14:33N 37°45' E 023°25'1312.6
2015-Apr-26 13:33N 37°54' E 023°36'3 2.7
2015-Apr-26 12:33N 37°56' E 023°38'1312.9
2015-Apr-26 11:33N 37°47' E 023°27'2 2.4
2015-Apr-26 10:33N 37°45' E 023°25'1312.7
2015-Apr-26 09:33N 37°54' E 023°36'3 3.1
2015-Apr-26 08:33N 37°57' E 023°38'1010.4
2015-Apr-26 07:33N 37°49' E 023°30'4 4.2
2015-Apr-26 06:31N 37°46' E 023°25'1313.0
2015-Apr-26 05:33N 37°55' E 023°36'2 2.2
2015-Apr-26 04:33N 37°57' E 023°38'1 0.1
2015-Apr-25 16:33N 37°56' E 023°37'1313.2
2015-Apr-25 15:33N 37°47' E 023°26'2 1.7
2015-Apr-25 14:33N 37°45' E 023°25'1313.0
2015-Apr-25 13:33N 37°55' E 023°36'3 2.7
2015-Apr-25 12:33N 37°57' E 023°39'0 0.0
2015-Apr-25 11:33N 37°57' E 023°39'0 0.0
2015-Apr-25 10:33N 37°57' E 023°39'0 0.0
2015-Apr-25 09:33N 37°57' E 023°39'0 0.0
2015-Apr-25 08:33N 37°57' E 023°39'1110.9
2015-Apr-25 07:33N 37°48' E 023°30'4 4.0
2015-Apr-25 06:33N 37°46' E 023°25'1312.7
2015-Apr-25 05:33N 37°55' E 023°36'2 2.0
2015-Apr-25 04:33N 37°57' E 023°39'0 0.0
2015-Apr-24 16:33N 37°57' E 023°38'1313.0
2015-Apr-24 15:33N 37°47' E 023°27'3 2.5
2015-Apr-24 14:33N 37°45' E 023°25'1312.7
2015-Apr-24 13:33N 37°55' E 023°36'2 2.4
2015-Apr-24 12:33N 37°56' E 023°38'1313.0
2015-Apr-24 11:33N 37°47' E 023°26'3 2.6
2015-Apr-24 10:33N 37°45' E 023°25'1312.7
2015-Apr-24 09:33N 37°54' E 023°35'3 3.4
2015-Apr-24 08:33N 37°57' E 023°39'1010.0
2015-Apr-24 07:33N 37°49' E 023°30'5 5.2
2015-Apr-24 06:33N 37°46' E 023°25'1313.1
2015-Apr-24 05:33N 37°55' E 023°36'2 2.1
2015-Apr-24 04:33N 37°57' E 023°38'1 0.1
2015-Apr-23 16:34N 37°56' E 023°37'1212.2
2015-Apr-23 15:34N 37°47' E 023°27'2 2.3
2015-Apr-23 14:34N 37°46' E 023°25'1312.7
2015-Apr-23 13:33N 37°55' E 023°36'3 2.5
2015-Apr-23 12:34N 37°57' E 023°38'1313.1
2015-Apr-23 11:33N 37°47' E 023°27'1 1.1
2015-Apr-23 10:26N 37°46' E 023°25'1213.0
2015-Apr-23 09:33N 37°55' E 023°36'3 3.1
2015-Apr-23 08:33N 37°57' E 023°38'1010.5
2015-Apr-23 07:33N 37°49' E 023°30'5 4.6
2015-Apr-23 06:33N 37°46' E 023°25'1313.1
2015-Apr-23 05:33N 37°56' E 023°37'2 1.9
2015-Apr-23 04:33N 37°57' E 023°38'1 0.1
2015-Apr-22 16:33N 37°56' E 023°38'1313.2
2015-Apr-22 15:33N 37°47' E 023°26'2 1.9
2015-Apr-22 14:33N 37°45' E 023°25'1312.9
2015-Apr-22 13:33N 37°55' E 023°36'2 2.0
2015-Apr-22 12:33N 37°56' E 023°37'1313.1
2015-Apr-22 11:33N 37°47' E 023°26'2 1.8
2015-Apr-22 10:33N 37°45' E 023°25'1312.9
2015-Apr-22 09:33N 37°55' E 023°36'2 1.7
2015-Apr-22 08:33N 37°56' E 023°37'1313.1
2015-Apr-22 07:33N 37°47' E 023°26'4 3.8
2015-Apr-22 06:33N 37°49' E 023°30'1110.5
2015-Apr-22 05:33N 37°57' E 023°38'0 0.0
2015-Apr-22 04:33N 37°57' E 023°38'1 0.1
2015-Apr-21 16:33N 37°56' E 023°37'1312.8
2015-Apr-21 15:34N 37°47' E 023°26'2 2.2
2015-Apr-21 14:33N 37°45' E 023°25'1312.7
2015-Apr-21 13:33N 37°54' E 023°35'2 2.1
2015-Apr-21 12:33N 37°56' E 023°37'1312.9
2015-Apr-21 11:33N 37°47' E 023°26'2 2.2
2015-Apr-21 10:33N 37°45' E 023°25'1312.6
2015-Apr-21 09:33N 37°54' E 023°35'3 2.8
2015-Apr-21 08:32N 37°56' E 023°38'1212.1
2015-Apr-21 07:33N 37°48' E 023°28'3 2.6
2015-Apr-21 06:32N 37°46' E 023°25'1312.9
2015-Apr-21 05:33N 37°55' E 023°36'2 2.3
2015-Apr-21 04:33N 37°57' E 023°38'1 0.1
2015-Apr-20 16:33N 37°56' E 023°38'1313.0
2015-Apr-20 15:34N 37°47' E 023°26'2 2.2
2015-Apr-20 14:34N 37°45' E 023°25'1312.8
2015-Apr-20 13:34N 37°55' E 023°36'2 2.5
2015-Apr-20 12:34N 37°56' E 023°38'1313.0
2015-Apr-20 11:33N 37°47' E 023°26'2 1.7
2015-Apr-20 10:33N 37°46' E 023°25'1313.1
2015-Apr-20 09:33N 37°55' E 023°36'2 1.9
2015-Apr-20 08:33N 37°56' E 023°38'1312.6
2015-Apr-20 07:33N 37°47' E 023°27'2 2.2
2015-Apr-20 06:33N 37°46' E 023°25'1313.2
2015-Apr-20 05:33N 37°55' E 023°36'2 2.1
2015-Apr-20 04:33N 37°57' E 023°38'2 0.2
2015-Apr-19 16:33N 37°55' E 023°37'1212.4
2015-Apr-19 15:33N 37°46' E 023°25'3 1.9
2015-Apr-19 14:14N 37°48' E 023°28'913.0
2015-Apr-19 13:33N 37°55' E 023°35'1 1.5
2015-Apr-19 12:32N 37°56' E 023°37'1212.6
2015-Apr-19 11:33N 37°47' E 023°26'2 1.7
2015-Apr-19 10:17N 37°47' E 023°28'912.8
2015-Apr-19 09:33N 37°55' E 023°36'2 2.1
2015-Apr-19 08:27N 37°56' E 023°38'1112.2
2015-Apr-19 07:33N 37°48' E 023°29'1 0.5
2015-Apr-19 06:23N 37°48' E 023°29'1112.7
2015-Apr-19 05:31N 37°56' E 023°38'1 0.1
2015-Apr-18 16:33N 37°56' E 023°37'1312.5
2015-Apr-18 15:33N 37°47' E 023°26'  

Dump ship's entire track history